KENL/ENL METAR and TAF weather

Enter ICAO airport designator
Station Type Date Time Source
KENL METAR 2020/09/18 17:55 UTC NOAA

KENL 181755Z AUTO 02010G14KT 10SM CLR 22/08 A3026 RMK AO2 T02150077 10220 20112


Station Type Date Time Source
KENL Decoded METAR 2020/09/18 17:55 UTC NOAA

Centralia, Centralia Municipal Airport, IL, United States (KENL) 38-30-53N 089-05-32W
Sep 18, 2020 - 01:55 PM EDT / 2020.09.18 1755 UTC
Wind: from the NNE (020 degrees) at 12 MPH (10 KT) gusting to 16 MPH (14 KT):0
Visibility: 10 mile(s):0
Sky conditions: clear
Temperature: 70.7 F (21.5 C)
Dew Point: 45.9 F (7.7 C)
Relative Humidity: 40%
Pressure (altimeter): 30.26 in. Hg (1024 hPa)
ob: KENL 181755Z AUTO 02010G14KT 10SM CLR 22/08 A3026 RMK AO2 T02150077 10220 20112
cycle: 18

Station Type Date Time Source
KENL TAF UTC NOAA

Error!

Example: see airport list